Time;durP1;ratioP1;P1;durP2;ratioP2;P2;SDS_P1;SDS_P2;PMS_P1;PMS_P2;Temp;Humidity;BMP_temperature;BMP_pressure;BME280_temperature;BME280_humidity;BME280_pressure;Samples;Min_cycle;Max_cycle;Signal;HPM_P1;HPM_P2
2022/07/11 00:01:44;;;;;;;;;;;;;;;;;;5068273;28;19920;-43
2022/07/11 00:04:10;;;;;;;;;;;;;;;;;;5067010;28;19924;-43
2022/07/11 00:06:35;;;;;;;;;;;;;;;;;;5068416;28;19908;-43
2022/07/11 00:09:01;;;;;;;;;;;;;;;;;;5065875;28;19913;-42
2022/07/11 00:11:27;;;;;;;;;;;;;;;;;;5068447;28;20434;-44
2022/07/11 00:13:53;;;;;;;;;;;;;;;;;;5067399;28;19917;-43
2022/07/11 00:16:19;;;;;;;;;;;;;;;;;;5068307;28;19912;-42
2022/07/11 00:18:45;;;;;;;;;;;;;;;;;;5067237;28;19909;-44
2022/07/11 00:21:11;;;;;;;;;;;;;;;;;;5067801;28;19908;-43
2022/07/11 00:23:37;;;;;;;;;;;;;;;;;;5066992;28;20431;-43
2022/07/11 00:26:03;;;;;;;;;;;;;;;;;;5067559;28;19908;-43
2022/07/11 00:28:29;;;;;;;;;;;;;;;;;;5067967;28;19912;-43
2022/07/11 00:30:54;;;;;;;;;;;;;;;;;;5067991;28;19966;-42
2022/07/11 00:33:20;;;;;;;;;;;;;;;;;;5067577;28;20351;-42
2022/07/11 00:35:46;;;;;;;;;;;;;;;;;;5067654;28;19909;-42
2022/07/11 00:38:12;;;;;;;;;;;;;;;;;;5066989;28;20007;-43
2022/07/11 00:40:38;;;;;;;;;;;;;;;;;;5048527;28;19916;-43
2022/07/11 00:43:04;;;;;;;;;;;;;;;;;;5067368;28;19913;-43
2022/07/11 00:45:30;;;;;;;;;;;;;;;;;;5067769;28;20294;-43
2022/07/11 00:47:57;;;;;;;;;;;;;;;;;;5067271;28;19965;-43
2022/07/11 00:50:23;;;;;;;;;;;;;;;;;;5067858;28;19912;-44
2022/07/11 00:52:49;;;;;;;;;;;;;;;;;;5067369;28;20011;-46
2022/07/11 00:55:15;;;;;;;;;;;;;;;;;;5066612;28;19920;-43
2022/07/11 00:57:41;;;;;;;;;;;;;;;;;;5067565;28;19915;-44
2022/07/11 01:00:08;;;;;;;;;;;;;;;;;;5067117;28;19916;-43
2022/07/11 01:02:35;;;;;;;;;;;;;;;;;;5067109;28;19912;-42
2022/07/11 01:05:02;;;;;;;;;;;;;;;;;;5067256;28;19908;-43
2022/07/11 01:07:29;;;;;;;;;;;;;;;;;;5067259;28;19916;-42
2022/07/11 01:09:55;;;;;;;;;;;;;;;;;;5065033;28;20013;-44
2022/07/11 01:12:21;;;;;;;;;;;;;;;;;;5068717;28;20302;-43
2022/07/11 01:14:47;;;;;;;;;;;;;;;;;;5068442;28;19912;-43
2022/07/11 01:17:13;;;;;;;;;;;;;;;;;;5068156;28;19915;-43
2022/07/11 01:19:39;;;;;;;;;;;;;;;;;;5067266;28;19920;-44
2022/07/11 01:22:05;;;;;;;;;;;;;;;;;;5067971;28;19917;-44
2022/07/11 01:24:31;;;;;;;;;;;;;;;;;;5068323;28;20560;-43
2022/07/11 01:26:57;;;;;;;;;;;;;;;;;;5068409;28;19995;-43
2022/07/11 01:29:23;;;;;;;;;;;;;;;;;;5068252;28;20019;-43
2022/07/11 01:31:49;;;;;;;;;;;;;;;;;;5067783;28;19920;-43
2022/07/11 01:34:15;;;;;;;;;;;;;;;;;;5066276;28;19920;-43
2022/07/11 01:36:42;;;;;;;;;;;;;;;;;;5068355;28;19908;-43
2022/07/11 01:39:08;;;;;;;;;;;;;;;;;;5067214;28;19916;-43
2022/07/11 01:41:34;;;;;;;;;;;;;;;;;;5066242;28;19932;-43
2022/07/11 01:44:00;;;;;;;;;;;;;;;;;;5067982;28;19912;-44
2022/07/11 01:46:26;;;;;;;;;;;;;;;;;;5067101;28;19904;-44
2022/07/11 01:48:52;;;;;;;;;;;;;;;;;;5067723;28;19948;-43
2022/07/11 01:51:18;;;;;;;;;;;;;;;;;;5068041;28;19930;-43
2022/07/11 01:53:44;;;;;;;;;;;;;;;;;;5068225;28;19912;-44
2022/07/11 01:56:10;;;;;;;;;;;;;;;;;;5066810;28;19912;-43
2022/07/11 01:58:36;;;;;;;;;;;;;;;;;;5067979;28;19912;-43
2022/07/11 02:01:01;;;;;;;;;;;;;;;;;;5067572;28;19915;-43
2022/07/11 02:03:27;;;;;;;;;;;;;;;;;;5068049;28;19939;-43
2022/07/11 02:05:53;;;;;;;;;;;;;;;;;;5067714;28;19999;-44
2022/07/11 02:08:19;;;;;;;;;;;;;;;;;;5068055;28;19919;-42
2022/07/11 02:10:45;;;;;;;;;;;;;;;;;;5066975;28;19916;-45
2022/07/11 02:13:11;;;;;;;;;;;;;;;;;;5067252;28;19919;-43
2022/07/11 02:15:37;;;;;;;;;;;;;;;;;;5067967;28;19916;-43
2022/07/11 02:18:04;;;;;;;;;;;;;;;;;;5066390;28;19912;-44
2022/07/11 02:20:30;;;;;;;;;;;;;;;;;;5068526;28;20363;-44
2022/07/11 02:22:57;;;;;;;;;;;;;;;;;;5071243;28;19913;-44
2022/07/11 02:25:23;;;;;;;;;;;;;;;;;;5071832;28;19908;-44
2022/07/11 02:27:50;;;;;;;;;;;;;;;;;;5070291;28;20979;-42
2022/07/11 02:30:15;;;;;;;;;;;;;;;;;;5071603;28;19923;-44
2022/07/11 02:32:42;;;;;;;;;;;;;;;;;;5071504;28;19909;-45
2022/07/11 02:35:08;;;;;;;;;;;;;;;;;;5070385;28;19927;-42
2022/07/11 02:37:34;;;;;;;;;;;;;;;;;;5071562;28;20331;-43
2022/07/11 02:40:00;;;;;;;;;;;;;;;;;;5071150;28;19909;-44
2022/07/11 02:42:26;;;;;;;;;;;;;;;;;;5069656;28;20339;-43
2022/07/11 02:44:52;;;;;;;;;;;;;;;;;;5070858;28;19919;-44
2022/07/11 02:47:18;;;;;;;;;;;;;;;;;;5071248;28;19965;-44
2022/07/11 02:49:44;;;;;;;;;;;;;;;;;;5069825;28;20106;-44
2022/07/11 02:52:10;;;;;;;;;;;;;;;;;;5069492;28;19908;-43
2022/07/11 02:54:36;;;;;;;;;;;;;;;;;;5069725;28;20003;-43
2022/07/11 02:57:02;;;;;;;;;;;;;;;;;;5068815;28;20007;-44
2022/07/11 02:59:28;;;;;;;;;;;;;;;;;;5069565;28;19939;-43
2022/07/11 03:01:54;;;;;;;;;;;;;;;;;;5070607;28;19909;-44
2022/07/11 03:04:20;;;;;;;;;;;;;;;;;;5071021;28;19969;-44
2022/07/11 03:06:46;;;;;;;;;;;;;;;;;;5070850;28;20009;-42
2022/07/11 03:09:12;;;;;;;;;;;;;;;;;;5070980;28;19908;-42
2022/07/11 03:11:38;;;;;;;;;;;;;;;;;;5070105;28;19912;-42
2022/07/11 03:14:04;;;;;;;;;;;;;;;;;;5069112;28;20007;-43
2022/07/11 03:16:30;;;;;;;;;;;;;;;;;;5070381;28;19909;-42
2022/07/11 03:18:56;;;;;;;;;;;;;;;;;;5070885;28;19966;-43
2022/07/11 03:21:23;;;;;;;;;;;;;;;;;;5070660;28;19908;-42
2022/07/11 03:23:51;;;;;;;;;;;;;;;;;;5070397;28;19912;-43
2022/07/11 03:26:18;;;;;;;;;;;;;;;;;;5070672;28;19917;-42
2022/07/11 03:28:44;;;;;;;;;;;;;;;;;;5069937;28;19958;-45
2022/07/11 03:31:10;;;;;;;;;;;;;;;;;;5067822;28;19916;-43
2022/07/11 03:33:36;;;;;;;;;;;;;;;;;;5067327;28;19924;-43
2022/07/11 03:36:02;;;;;;;;;;;;;;;;;;5070246;28;19915;-43
2022/07/11 03:38:28;;;;;;;;;;;;;;;;;;5070873;28;19912;-43
2022/07/11 03:40:55;;;;;;;;;;;;;;;;;;5070292;28;19908;-43
2022/07/11 03:43:21;;;;;;;;;;;;;;;;;;5069217;28;19924;-44
2022/07/11 03:45:47;;;;;;;;;;;;;;;;;;5069958;28;19913;-44
2022/07/11 03:48:13;;;;;;;;;;;;;;;;;;5052514;28;19931;-42
2022/07/11 03:50:39;;;;;;;;;;;;;;;;;;5070177;28;20007;-42
2022/07/11 03:53:05;;;;;;;;;;;;;;;;;;5069200;28;19920;-43
2022/07/11 03:55:32;;;;;;;;;;;;;;;;;;5069721;28;19913;-42
2022/07/11 03:57:58;;;;;;;;;;;;;;;;;;5069371;28;19913;-44
2022/07/11 04:00:24;;;;;;;;;;;;;;;;;;5069012;28;19919;-43
2022/07/11 04:02:50;;;;;;;;;;;;;;;;;;5069455;28;19939;-43
2022/07/11 04:05:16;;;;;;;;;;;;;;;;;;5069806;28;19912;-43
2022/07/11 04:07:45;;;;;;;;;;;;;;;;;;5070011;28;19912;-42
2022/07/11 04:10:11;;;;;;;;;;;;;;;;;;5069853;28;19988;-43
2022/07/11 04:12:37;;;;;;;;;;;;;;;;;;5069358;28;20426;-42
2022/07/11 04:15:04;;;;;;;;;;;;;;;;;;5050140;28;19978;-42
2022/07/11 04:17:30;;;;;;;;;;;;;;;;;;5069770;28;19909;-42
2022/07/11 04:19:56;;;;;;;;;;;;;;;;;;5069688;28;19919;-44
2022/07/11 04:22:22;;;;;;;;;;;;;;;;;;5069603;28;19975;-43
2022/07/11 04:24:48;;;;;;;;;;;;;;;;;;5069204;28;19970;-44
2022/07/11 04:27:14;;;;;;;;;;;;;;;;;;5068202;28;19908;-43
2022/07/11 04:29:40;;;;;;;;;;;;;;;;;;5069494;28;19919;-44
2022/07/11 04:32:06;;;;;;;;;;;;;;;;;;5068820;28;19955;-43
2022/07/11 04:34:32;;;;;;;;;;;;;;;;;;5069673;28;19912;-42
2022/07/11 04:36:58;;;;;;;;;;;;;;;;;;5069315;28;19935;-42
2022/07/11 04:39:24;;;;;;;;;;;;;;;;;;5068289;28;19908;-43
2022/07/11 04:41:50;;;;;;;;;;;;;;;;;;5068771;28;19920;-43
2022/07/11 04:44:16;;;;;;;;;;;;;;;;;;5068802;28;19966;-43
2022/07/11 04:46:42;;;;;;;;;;;;;;;;;;5069163;28;19916;-43
2022/07/11 04:49:08;;;;;;;;;;;;;;;;;;5067860;28;20011;-44
2022/07/11 04:51:36;;;;;;;;;;;;;;;;;;5069075;28;20344;-43
2022/07/11 04:54:02;;;;;;;;;;;;;;;;;;5068648;28;19916;-44
2022/07/11 04:56:28;;;;;;;;;;;;;;;;;;5068530;28;19943;-43
2022/07/11 04:58:54;;;;;;;;;;;;;;;;;;5068924;28;19909;-44
2022/07/11 05:01:19;;;;;;;;;;;;;;;;;;5068770;28;19916;-42
2022/07/11 05:03:45;;;;;;;;;;;;;;;;;;5068872;28;19943;-43
2022/07/11 05:06:11;;;;;;;;;;;;;;;;;;5068699;28;19935;-44
2022/07/11 05:08:37;;;;;;;;;;;;;;;;;;5068795;28;20015;-43
2022/07/11 05:11:04;;;;;;;;;;;;;;;;;;5067401;28;19932;-43
2022/07/11 05:13:30;;;;;;;;;;;;;;;;;;5068828;28;19913;-43
2022/07/11 05:15:56;;;;;;;;;;;;;;;;;;5067798;28;19961;-41
2022/07/11 05:18:22;;;;;;;;;;;;;;;;;;5068604;28;19913;-40
2022/07/11 05:20:48;;;;;;;;;;;;;;;;;;5068252;28;19919;-40
2022/07/11 05:23:14;;;;;;;;;;;;;;;;;;5068388;28;20299;-40
2022/07/11 05:25:40;;;;;;;;;;;;;;;;;;5066302;28;19913;-40
2022/07/11 05:28:06;;;;;;;;;;;;;;;;;;5068094;28;19965;-40
2022/07/11 05:30:32;;;;;;;;;;;;;;;;;;5068137;28;19912;-40
2022/07/11 05:32:58;;;;;;;;;;;;;;;;;;5068393;28;19999;-41
2022/07/11 05:35:25;;;;;;;;;;;;;;;;;;5079236;28;19947;-41
2022/07/11 05:37:51;;;;;;;;;;;;;;;;;;5088286;28;19919;-40
2022/07/11 05:40:16;;;;;;;;;;;;;;;;;;5071216;28;19916;-40
2022/07/11 05:42:42;;;;;;;;;;;;;;;;;;5067203;28;19956;-41
2022/07/11 05:45:08;;;;;;;;;;;;;;;;;;5067189;28;19912;-41
2022/07/11 05:47:34;;;;;;;;;;;;;;;;;;5068324;28;19913;-41
2022/07/11 05:50:00;;;;;;;;;;;;;;;;;;5066089;28;19995;-41
2022/07/11 05:52:26;;;;;;;;;;;;;;;;;;5067470;28;20462;-40
2022/07/11 05:54:52;;;;;;;;;;;;;;;;;;5067251;28;19925;-41
2022/07/11 05:57:18;;;;;;;;;;;;;;;;;;5072421;28;19916;-40
2022/07/11 05:59:45;;;;;;;;;;;;;;;;;;5072142;28;20004;-40
2022/07/11 06:02:11;;;;;;;;;;;;;;;;;;5071943;28;19966;-40
2022/07/11 06:04:37;;;;;;;;;;;;;;;;;;5072120;28;19947;-41
2022/07/11 06:07:03;;;;;;;;;;;;;;;;;;5072059;28;19959;-41
2022/07/11 06:09:29;;;;;;;;;;;;;;;;;;5071640;28;19913;-40
2022/07/11 06:11:55;;;;;;;;;;;;;;;;;;5071060;28;19974;-40
2022/07/11 06:14:22;;;;;;;;;;;;;;;;;;5070993;28;20358;-41
2022/07/11 06:16:48;;;;;;;;;;;;;;;;;;5071859;28;19913;-41
2022/07/11 06:19:14;;;;;;;;;;;;;;;;;;5071207;28;19913;-40
2022/07/11 06:21:40;;;;;;;;;;;;;;;;;;5071930;28;19908;-41
2022/07/11 06:24:06;;;;;;;;;;;;;;;;;;5073987;28;19912;-41
2022/07/11 06:26:32;;;;;;;;;;;;;;;;;;5071301;28;19916;-41
2022/07/11 06:28:58;;;;;;;;;;;;;;;;;;5071740;28;19916;-40
2022/07/11 06:31:24;;;;;;;;;;;;;;;;;;5064472;28;19912;-40
2022/07/11 06:33:54;;;;;;;;;;;;;;;;;;5070468;28;19927;-41
2022/07/11 06:36:21;;;;;;;;;;;;;;;;;;5072355;28;19917;-41
2022/07/11 06:38:47;;;;;;;;;;;;;;;;;;5068089;28;20443;-41
2022/07/11 06:41:13;;;;;;;;;;;;;;;;;;5057522;28;19921;-40
2022/07/11 06:43:38;;;;;;;;;;;;;;;;;;5070403;28;19947;-40
2022/07/11 06:46:04;;;;;;;;;;;;;;;;;;5068335;28;19926;-41
2022/07/11 06:48:30;;;;;;;;;;;;;;;;;;5071066;28;19909;-41
2022/07/11 06:50:56;;;;;;;;;;;;;;;;;;5070682;28;19928;-41
2022/07/11 06:53:22;;;;;;;;;;;;;;;;;;5071046;28;20000;-41
2022/07/11 06:55:48;;;;;;;;;;;;;;;;;;5070483;28;20391;-41
2022/07/11 06:58:31;;;;;;;;;;;;;;;;;;5069044;28;19927;-41
2022/07/11 07:00:57;;;;;;;;;;;;;;;;;;5052565;28;20373;-40
2022/07/11 07:03:23;;;;;;;;;;;;;;;;;;5056920;28;19954;-41
2022/07/11 07:05:49;;;;;;;;;;;;;;;;;;5069875;28;19916;-40
2022/07/11 07:08:15;;;;;;;;;;;;;;;;;;5071916;28;19970;-40
2022/07/11 07:10:42;;;;;;;;;;;;;;;;;;5071867;28;19999;-41
2022/07/11 07:13:08;;;;;;;;;;;;;;;;;;5068242;28;19920;-42
2022/07/11 07:15:34;;;;;;;;;;;;;;;;;;5055709;28;19999;-43
2022/07/11 07:18:00;;;;;;;;;;;;;;;;;;5060900;28;19912;-41
2022/07/11 07:20:26;;;;;;;;;;;;;;;;;;5071263;28;19916;-43
2022/07/11 07:22:52;;;;;;;;;;;;;;;;;;5075800;28;19921;-43
2022/07/11 07:25:18;;;;;;;;;;;;;;;;;;5070739;28;19920;-42
2022/07/11 07:27:44;;;;;;;;;;;;;;;;;;5070626;28;19985;-42
2022/07/11 07:30:10;;;;;;;;;;;;;;;;;;5070041;28;19912;-43
2022/07/11 07:32:36;;;;;;;;;;;;;;;;;;5066117;28;20009;-42
2022/07/11 07:35:02;;;;;;;;;;;;;;;;;;5064082;28;20072;-42
2022/07/11 07:37:28;;;;;;;;;;;;;;;;;;5064281;28;19970;-42
2022/07/11 07:39:54;;;;;;;;;;;;;;;;;;5067359;28;19908;-42
2022/07/11 07:42:20;;;;;;;;;;;;;;;;;;5070838;28;19917;-42
2022/07/11 07:44:46;;;;;;;;;;;;;;;;;;5067418;28;20399;-42
2022/07/11 07:47:12;;;;;;;;;;;;;;;;;;5071184;28;20395;-42
2022/07/11 07:49:38;;;;;;;;;;;;;;;;;;5070690;28;19921;-42
2022/07/11 07:52:04;;;;;;;;;;;;;;;;;;5052634;28;20269;-42
2022/07/11 07:54:30;;;;;;;;;;;;;;;;;;5067387;28;19924;-42
2022/07/11 07:56:56;;;;;;;;;;;;;;;;;;5082435;28;19912;-44
2022/07/11 07:59:24;;;;;;;;;;;;;;;;;;5070675;28;19908;-42
2022/07/11 08:01:50;;;;;;;;;;;;;;;;;;5068591;28;20411;-43
2022/07/11 08:04:17;;;;;;;;;;;;;;;;;;5064020;28;19970;-42
2022/07/11 08:06:43;;;;;;;;;;;;;;;;;;5067248;28;19916;-43
2022/07/11 08:09:08;;;;;;;;;;;;;;;;;;5068590;28;19916;-44
2022/07/11 08:11:34;;;;;;;;;;;;;;;;;;5070438;28;19959;-42
2022/07/11 08:14:00;;;;;;;;;;;;;;;;;;5067828;28;19917;-42
2022/07/11 08:16:28;;;;;;;;;;;;;;;;;;5069639;28;20425;-43
2022/07/11 08:18:55;;;;;;;;;;;;;;;;;;5069446;28;19916;-42
2022/07/11 08:21:21;;;;;;;;;;;;;;;;;;5070448;28;19915;-43
2022/07/11 08:23:47;;;;;;;;;;;;;;;;;;5070073;28;20356;-42
2022/07/11 08:26:13;;;;;;;;;;;;;;;;;;5069290;28;19916;-42
2022/07/11 08:28:40;;;;;;;;;;;;;;;;;;5069650;28;19915;-43
2022/07/11 08:31:06;;;;;;;;;;;;;;;;;;5068224;28;19923;-43
2022/07/11 08:33:32;;;;;;;;;;;;;;;;;;5067578;28;19920;-43
2022/07/11 08:35:58;;;;;;;;;;;;;;;;;;5067740;28;19921;-44
2022/07/11 08:38:24;;;;;;;;;;;;;;;;;;5068715;28;19909;-43
2022/07/11 08:40:50;;;;;;;;;;;;;;;;;;5068737;28;19916;-44
2022/07/11 08:43:16;;;;;;;;;;;;;;;;;;5068989;28;19959;-42
2022/07/11 08:45:42;;;;;;;;;;;;;;;;;;5069173;28;19904;-42
2022/07/11 08:48:11;;;;;;;;;;;;;;;;;;5068641;28;19913;-43
2022/07/11 08:50:37;;;;;;;;;;;;;;;;;;5068138;28;19923;-43
2022/07/11 08:53:03;;;;;;;;;;;;;;;;;;5068626;28;19914;-42
2022/07/11 08:55:29;;;;;;;;;;;;;;;;;;5068516;28;19944;-42
2022/07/11 08:57:55;;;;;;;;;;;;;;;;;;5067117;28;20011;-43
2022/07/11 09:00:21;;;;;;;;;;;;;;;;;;5050448;28;19936;-44
2022/07/11 09:02:47;;;;;;;;;;;;;;;;;;5066784;28;19921;-42
2022/07/11 09:05:13;;;;;;;;;;;;;;;;;;5068534;28;19999;-44
2022/07/11 09:07:39;;;;;;;;;;;;;;;;;;5048422;28;19912;-45
2022/07/11 09:10:05;;;;;;;;;;;;;;;;;;5067222;28;19909;-42
2022/07/11 09:12:32;;;;;;;;;;;;;;;;;;5067106;28;19912;-42
2022/07/11 09:14:59;;;;;;;;;;;;;;;;;;5066428;28;19921;-42
2022/07/11 09:17:30;;;;;;;;;;;;;;;;;;5068987;28;19934;-42
2022/07/11 09:19:56;;;;;;;;;;;;;;;;;;5068799;28;19940;-42
2022/07/11 09:28:11;;;;;;;;;;;;;;;;;;4986481;28;19933;-43
2022/07/11 09:30:39;;;;;;;;;;;;;;;;;;4969380;28;20396;-43
2022/07/11 09:33:05;;;;;;;;;;;;;;;;;;5024820;28;19912;-42
2022/07/11 09:35:31;;;;;;;;;;;;;;;;;;5067174;28;19916;-42
2022/07/11 09:37:57;;;;;;;;;;;;;;;;;;5068278;28;20315;-42
2022/07/11 09:40:23;;;;;;;;;;;;;;;;;;5068311;28;19908;-42
2022/07/11 09:42:49;;;;;;;;;;;;;;;;;;5067586;28;19920;-42
2022/07/11 09:45:16;;;;;;;;;;;;;;;;;;5067585;28;20510;-42
2022/07/11 09:47:42;;;;;;;;;;;;;;;;;;5065397;28;19912;-42
2022/07/11 09:50:08;;;;;;;;;;;;;;;;;;5057813;28;20398;-43
2022/07/11 09:52:34;;;;;;;;;;;;;;;;;;5068373;28;19919;-42
2022/07/11 09:55:05;;;;;;;;;;;;;;;;;;5068098;28;19912;-43
2022/07/11 09:57:31;;;;;;;;;;;;;;;;;;5067236;28;19916;-43
2022/07/11 09:59:57;;;;;;;;;;;;;;;;;;5067989;28;20496;-43
2022/07/11 10:02:23;;;;;;;;;;;;;;;;;;5068252;28;19909;-42
2022/07/11 10:04:49;;;;;;;;;;;;;;;;;;5068016;28;20027;-43
2022/07/11 10:07:15;;;;;;;;;;;;;;;;;;5067404;28;19916;-42
2022/07/11 10:09:40;;;;;;;;;;;;;;;;;;5067995;28;19913;-42
2022/07/11 10:12:07;;;;;;;;;;;;;;;;;;5066333;28;19917;-43
2022/07/11 10:14:33;;;;;;;;;;;;;;;;;;5067680;28;19926;-43
2022/07/11 10:16:59;;;;;;;;;;;;;;;;;;5067442;28;20002;-42
2022/07/11 10:19:26;;;;;;;;;;;;;;;;;;5050186;28;19908;-42
2022/07/11 10:21:51;;;;;;;;;;;;;;;;;;5067554;28;19912;-44
2022/07/11 10:24:17;;;;;;;;;;;;;;;;;;5067822;28;19969;-42
2022/07/11 10:26:43;;;;;;;;;;;;;;;;;;5067989;28;19915;-43
2022/07/11 10:29:09;;;;;;;;;;;;;;;;;;5067660;28;19913;-43
2022/07/11 10:31:35;;;;;;;;;;;;;;;;;;5065261;28;19958;-42
2022/07/11 10:34:02;;;;;;;;;;;;;;;;;;5067479;28;19966;-42
2022/07/11 10:36:29;;;;;;;;;;;;;;;;;;5068133;28;19919;-43
2022/07/11 10:38:55;;;;;;;;;;;;;;;;;;5064351;28;19951;-43
2022/07/11 10:41:22;;;;;;;;;;;;;;;;;;5057500;28;20384;-44
2022/07/11 10:43:48;;;;;;;;;;;;;;;;;;5061149;28;19928;-43
2022/07/11 10:46:13;;;;;;;;;;;;;;;;;;5066090;28;19912;-42
2022/07/11 10:48:40;;;;;;;;;;;;;;;;;;5068120;28;19921;-43
2022/07/11 10:51:06;;;;;;;;;;;;;;;;;;5048089;28;21581;-43
2022/07/11 10:53:33;;;;;;;;;;;;;;;;;;5070084;28;19970;-43
2022/07/11 10:56:06;;;;;;;;;;;;;;;;;;5069851;28;20480;-43
2022/07/11 10:58:32;;;;;;;;;;;;;;;;;;5069020;28;19919;-44
2022/07/11 11:00:57;;;;;;;;;;;;;;;;;;5069206;28;19921;-41
2022/07/11 11:03:24;;;;;;;;;;;;;;;;;;5071173;28;19909;-45
2022/07/11 11:05:52;;;;;;;;;;;;;;;;;;5089587;28;19990;-43
2022/07/11 11:08:18;;;;;;;;;;;;;;;;;;5087575;28;20390;-43
2022/07/11 11:10:44;;;;;;;;;;;;;;;;;;5070788;28;20594;-42
2022/07/11 11:13:10;;;;;;;;;;;;;;;;;;5069269;28;19919;-44
2022/07/11 11:15:36;;;;;;;;;;;;;;;;;;5069864;28;19948;-43
2022/07/11 11:18:02;;;;;;;;;;;;;;;;;;5068883;28;19993;-42
2022/07/11 11:20:28;;;;;;;;;;;;;;;;;;5070808;28;20015;-42
2022/07/11 11:22:54;;;;;;;;;;;;;;;;;;5070120;28;19994;-42
2022/07/11 11:25:20;;;;;;;;;;;;;;;;;;5069511;28;19990;-42
2022/07/11 11:27:46;;;;;;;;;;;;;;;;;;5067584;28;19916;-41
2022/07/11 11:30:12;;;;;;;;;;;;;;;;;;5070290;28;20023;-42
2022/07/11 11:32:38;;;;;;;;;;;;;;;;;;5070482;28;19916;-43
2022/07/11 11:35:05;;;;;;;;;;;;;;;;;;5068439;28;19917;-43
2022/07/11 11:37:31;;;;;;;;;;;;;;;;;;5067086;28;20521;-43
2022/07/11 11:39:57;;;;;;;;;;;;;;;;;;5066566;28;20222;-43
2022/07/11 11:42:23;;;;;;;;;;;;;;;;;;5068825;28;19943;-43
2022/07/11 11:44:49;;;;;;;;;;;;;;;;;;5076153;28;19923;-55
2022/07/11 11:47:15;;;;;;;;;;;;;;;;;;5056754;28;19920;-54
2022/07/11 11:49:42;;;;;;;;;;;;;;;;;;5069254;28;19962;-52
2022/07/11 11:52:08;;;;;;;;;;;;;;;;;;5068475;28;19946;-52
2022/07/11 11:54:34;;;;;;;;;;;;;;;;;;5062851;28;19924;-54
2022/07/11 11:57:00;;;;;;;;;;;;;;;;;;5065831;28;19916;-56
2022/07/11 11:59:26;;;;;;;;;;;;;;;;;;5050413;28;19909;-54
2022/07/11 12:01:52;;;;;;;;;;;;;;;;;;5059131;28;19909;-54
2022/07/11 12:04:18;;;;;;;;;;;;;;;;;;5068141;28;19921;-53
2022/07/11 12:06:44;;;;;;;;;;;;;;;;;;5069088;28;19966;-53
2022/07/11 12:09:10;;;;;;;;;;;;;;;;;;5069721;28;19919;-53
2022/07/11 12:11:37;;;;;;;;;;;;;;;;;;5066433;28;19913;-53
2022/07/11 12:14:03;;;;;;;;;;;;;;;;;;5065849;28;19917;-54
2022/07/11 12:16:43;;;;;;;;;;;;;;;;;;5067652;28;21340;-54
2022/07/11 12:19:09;;;;;;;;;;;;;;;;;;5067855;28;19916;-52
2022/07/11 12:21:35;;;;;;;;;;;;;;;;;;5068580;28;19939;-51
2022/07/11 12:24:02;;;;;;;;;;;;;;;;;;5067690;28;19909;-53
2022/07/11 12:26:29;;;;;;;;;;;;;;;;;;5067542;28;20315;-50
2022/07/11 12:28:56;;;;;;;;;;;;;;;;;;5063929;28;19923;-51
2022/07/11 12:31:22;;;;;;;;;;;;;;;;;;5063032;28;20376;-54
2022/07/11 12:33:47;;;;;;;;;;;;;;;;;;5068635;28;19949;-53
2022/07/11 12:36:13;;;;;;;;;;;;;;;;;;5068617;28;19912;-52
2022/07/11 12:38:39;;;;;;;;;;;;;;;;;;5067847;28;19927;-55
2022/07/11 12:41:05;;;;;;;;;;;;;;;;;;5067262;28;20109;-54
2022/07/11 12:44:57;;;;;;;;;;;;;;;;;;5068877;28;20435;-54
2022/07/11 12:46:17;;;;;;;;;;;;;;;;;;5068923;28;19915;-55
2022/07/11 12:48:43;;;;;;;;;;;;;;;;;;5068709;28;19909;-52
2022/07/11 12:51:09;;;;;;;;;;;;;;;;;;5050240;28;20310;-52
2022/07/11 12:53:35;;;;;;;;;;;;;;;;;;5068887;28;19913;-53
2022/07/11 12:56:02;;;;;;;;;;;;;;;;;;5068352;28;19909;-53
2022/07/11 12:58:28;;;;;;;;;;;;;;;;;;5057442;28;20415;-53
2022/07/11 13:00:54;;;;;;;;;;;;;;;;;;5070055;28;19912;-55
2022/07/11 13:03:20;;;;;;;;;;;;;;;;;;5068491;28;19919;-52
2022/07/11 13:05:47;;;;;;;;;;;;;;;;;;5068085;28;20011;-54
2022/07/11 13:11:00;;;;;;;;;;;;;;;;;;5068120;28;19962;-54
2022/07/11 13:13:26;;;;;;;;;;;;;;;;;;5068507;28;20011;-53
2022/07/11 13:15:54;;;;;;;;;;;;;;;;;;5068205;28;19915;-54
2022/07/11 13:18:19;;;;;;;;;;;;;;;;;;5067967;28;19951;-52
2022/07/11 13:20:46;;;;;;;;;;;;;;;;;;5068543;28;20179;-54
2022/07/11 13:23:12;;;;;;;;;;;;;;;;;;5068044;28;20509;-55
2022/07/11 13:25:38;;;;;;;;;;;;;;;;;;5067993;28;20011;-53
2022/07/11 13:28:04;;;;;;;;;;;;;;;;;;5067915;28;20230;-55
2022/07/11 13:30:30;;;;;;;;;;;;;;;;;;5067924;28;19919;-53
2022/07/11 13:32:57;;;;;;;;;;;;;;;;;;5068069;28;20019;-54
2022/07/11 13:35:24;;;;;;;;;;;;;;;;;;5050303;28;19919;-53
2022/07/11 13:37:52;;;;;;;;;;;;;;;;;;5067603;28;19912;-55
2022/07/11 13:40:18;;;;;;;;;;;;;;;;;;5066322;28;19928;-54
2022/07/11 13:42:49;;;;;;;;;;;;;;;;;;5067287;28;19917;-55
2022/07/11 13:45:15;;;;;;;;;;;;;;;;;;5068165;28;19912;-53
2022/07/11 13:47:42;;;;;;;;;;;;;;;;;;5067243;28;19926;-54
2022/07/11 13:50:08;;;;;;;;;;;;;;;;;;5048460;28;19916;-54
2022/07/11 13:52:35;;;;;;;;;;;;;;;;;;5067113;28;20387;-56
2022/07/11 13:55:02;;;;;;;;;;;;;;;;;;5052332;28;20008;-55
2022/07/11 13:57:27;;;;;;;;;;;;;;;;;;5048275;28;19916;-55
2022/07/11 13:59:53;;;;;;;;;;;;;;;;;;5047642;28;19916;-53
2022/07/11 14:02:19;;;;;;;;;;;;;;;;;;5056991;28;19918;-55
2022/07/11 14:04:45;;;;;;;;;;;;;;;;;;5066072;28;19917;-54
2022/07/11 14:07:11;;;;;;;;;;;;;;;;;;5067655;28;19920;-51
2022/07/11 14:09:38;;;;;;;;;;;;;;;;;;5067703;28;20457;-54
2022/07/11 14:12:04;;;;;;;;;;;;;;;;;;5067651;28;20170;-52
2022/07/11 14:14:31;;;;;;;;;;;;;;;;;;5067795;28;19951;-55
2022/07/11 14:16:57;;;;;;;;;;;;;;;;;;5051952;28;19944;-54
2022/07/11 14:19:23;;;;;;;;;;;;;;;;;;5071998;28;20067;-55
2022/07/11 14:21:49;;;;;;;;;;;;;;;;;;5070692;28;19912;-54
2022/07/11 14:24:15;;;;;;;;;;;;;;;;;;5071584;28;19912;-54
2022/07/11 14:26:42;;;;;;;;;;;;;;;;;;5071582;28;19909;-55
2022/07/11 14:29:08;;;;;;;;;;;;;;;;;;5071136;28;19916;-55
2022/07/11 14:31:34;;;;;;;;;;;;;;;;;;5071531;28;20414;-55
2022/07/11 14:34:01;;;;;;;;;;;;;;;;;;5070491;28;20379;-54
2022/07/11 14:36:28;;;;;;;;;;;;;;;;;;5060804;28;19955;-55
2022/07/11 14:38:54;;;;;;;;;;;;;;;;;;5051097;28;19909;-54
2022/07/11 14:41:20;;;;;;;;;;;;;;;;;;5063278;28;19927;-52
2022/07/11 14:43:46;;;;;;;;;;;;;;;;;;5070686;28;19916;-54
2022/07/11 14:46:12;;;;;;;;;;;;;;;;;;5064204;28;20407;-56
2022/07/11 14:48:39;;;;;;;;;;;;;;;;;;5061903;28;19917;-55
2022/07/11 14:51:05;;;;;;;;;;;;;;;;;;5070616;28;19908;-55
2022/07/11 14:53:31;;;;;;;;;;;;;;;;;;5057670;28;19913;-54
2022/07/11 14:55:57;;;;;;;;;;;;;;;;;;5052731;28;19913;-55
2022/07/11 14:58:23;;;;;;;;;;;;;;;;;;5058332;28;20449;-55
2022/07/11 15:00:49;;;;;;;;;;;;;;;;;;5056028;28;19913;-54
2022/07/11 15:05:59;;;;;;;;;;;;;;;;;;5070760;28;19919;-54
2022/07/11 15:14:08;;;;;;;;;;;;;;;;;;5025450;28;20332;-55
2022/07/11 15:16:34;;;;;;;;;;;;;;;;;;5070576;28;19966;-55
2022/07/11 15:19:00;;;;;;;;;;;;;;;;;;5070295;28;20364;-54
2022/07/11 15:21:26;;;;;;;;;;;;;;;;;;5063417;28;19944;-52
2022/07/11 15:23:52;;;;;;;;;;;;;;;;;;5046076;28;19966;-53
2022/07/11 15:26:18;;;;;;;;;;;;;;;;;;5090603;28;19916;-54
2022/07/11 15:28:44;;;;;;;;;;;;;;;;;;5077414;28;19912;-54
2022/07/11 15:31:12;;;;;;;;;;;;;;;;;;5065707;28;20033;-55
2022/07/11 15:33:39;;;;;;;;;;;;;;;;;;5060386;28;19943;-53
2022/07/11 15:36:05;;;;;;;;;;;;;;;;;;5070585;28;19974;-55
2022/07/11 15:38:31;;;;;;;;;;;;;;;;;;5068588;28;20005;-56
2022/07/11 15:40:58;;;;;;;;;;;;;;;;;;5070360;28;20402;-54
2022/07/11 15:43:24;;;;;;;;;;;;;;;;;;5067652;28;19974;-52
2022/07/11 15:45:50;;;;;;;;;;;;;;;;;;5070969;28;20610;-56
2022/07/11 15:48:16;;;;;;;;;;;;;;;;;;5071121;28;19912;-55
2022/07/11 15:50:42;;;;;;;;;;;;;;;;;;5070391;28;20004;-55
2022/07/11 15:53:08;;;;;;;;;;;;;;;;;;5069791;28;19928;-53
2022/07/11 15:55:34;;;;;;;;;;;;;;;;;;5071009;28;20456;-55
2022/07/11 15:58:00;;;;;;;;;;;;;;;;;;5070057;28;19908;-55
2022/07/11 16:00:26;;;;;;;;;;;;;;;;;;5066809;28;19912;-56
2022/07/11 16:02:52;;;;;;;;;;;;;;;;;;5067876;28;19982;-55
2022/07/11 16:05:18;;;;;;;;;;;;;;;;;;5068349;28;19916;-55
2022/07/11 16:07:44;;;;;;;;;;;;;;;;;;5066486;28;19908;-55
2022/07/11 16:10:09;;;;;;;;;;;;;;;;;;5067556;28;19912;-55
2022/07/11 16:12:35;;;;;;;;;;;;;;;;;;5070541;28;19909;-55
2022/07/11 16:15:01;;;;;;;;;;;;;;;;;;5070100;28;19913;-55
2022/07/11 16:17:27;;;;;;;;;;;;;;;;;;5070970;28;20023;-54
2022/07/11 16:19:53;;;;;;;;;;;;;;;;;;5070340;28;19917;-52
2022/07/11 16:22:19;;;;;;;;;;;;;;;;;;5068971;28;20371;-55
2022/07/11 16:24:46;;;;;;;;;;;;;;;;;;5069990;28;19927;-54
2022/07/11 16:27:12;;;;;;;;;;;;;;;;;;5060818;28;19935;-55
2022/07/11 16:29:38;;;;;;;;;;;;;;;;;;5066744;28;19913;-53
2022/07/11 16:32:04;;;;;;;;;;;;;;;;;;5080886;28;19919;-55
2022/07/11 16:34:30;;;;;;;;;;;;;;;;;;5079061;28;19917;-56
2022/07/11 16:36:56;;;;;;;;;;;;;;;;;;5068727;28;19934;-55
2022/07/11 16:44:51;;;;;;;;;;;;;;;;;;5066759;28;19916;-56
2022/07/11 16:47:17;;;;;;;;;;;;;;;;;;5067247;28;19942;-55
2022/07/11 16:49:43;;;;;;;;;;;;;;;;;;5067950;28;19916;-57
2022/07/11 16:52:09;;;;;;;;;;;;;;;;;;5065881;28;19923;-56
2022/07/11 16:54:37;;;;;;;;;;;;;;;;;;5067196;28;19974;-57
2022/07/11 16:57:02;;;;;;;;;;;;;;;;;;5065743;28;19917;-57
2022/07/11 16:59:28;;;;;;;;;;;;;;;;;;5068593;28;20745;-56
2022/07/11 17:01:54;;;;;;;;;;;;;;;;;;5066963;28;20050;-56